sensor_id;sensor_type;location;lat;lon;timestamp;temperature;humidity
51739;DHT22;37815;52.692;6.226;2024-02-21T00:02:30;10.70;99.90
51739;DHT22;37815;52.692;6.226;2024-02-21T00:07:30;10.70;99.90
51739;DHT22;37815;52.692;6.226;2024-02-21T00:12:31;10.70;99.90
51739;DHT22;37815;52.692;6.226;2024-02-21T00:17:31;10.70;99.90
51739;DHT22;37815;52.692;6.226;2024-02-21T00:22:32;10.70;99.90
51739;DHT22;37815;52.692;6.226;2024-02-21T00:27:33;10.10;99.90
51739;DHT22;37815;52.692;6.226;2024-02-21T00:32:34;10.70;99.90
51739;DHT22;37815;52.692;6.226;2024-02-21T00:37:35;10.70;99.90
51739;DHT22;37815;52.692;6.226;2024-02-21T00:42:36;10.70;99.90
51739;DHT22;37815;52.692;6.226;2024-02-21T00:47:36;10.70;99.90
51739;DHT22;37815;52.692;6.226;2024-02-21T00:52:37;10.70;99.90
51739;DHT22;37815;52.692;6.226;2024-02-21T00:57:38;10.70;99.90
51739;DHT22;37815;52.692;6.226;2024-02-21T01:02:38;10.70;99.90
51739;DHT22;37815;52.692;6.226;2024-02-21T01:07:39;10.70;99.90
51739;DHT22;37815;52.692;6.226;2024-02-21T01:12:39;10.70;99.90
51739;DHT22;37815;52.692;6.226;2024-02-21T01:17:40;10.70;99.90
51739;DHT22;37815;52.692;6.226;2024-02-21T01:22:41;10.70;99.90
51739;DHT22;37815;52.692;6.226;2024-02-21T01:27:41;10.70;99.90
51739;DHT22;37815;52.692;6.226;2024-02-21T01:32:42;10.70;99.90
51739;DHT22;37815;52.692;6.226;2024-02-21T01:37:42;10.70;99.90
51739;DHT22;37815;52.692;6.226;2024-02-21T01:42:43;10.70;99.90
51739;DHT22;37815;52.692;6.226;2024-02-21T01:47:44;10.70;99.90
51739;DHT22;37815;52.692;6.226;2024-02-21T01:52:46;10.70;99.90
51739;DHT22;37815;52.692;6.226;2024-02-21T01:57:48;10.70;99.90
51739;DHT22;37815;52.692;6.226;2024-02-21T02:02:49;10.60;99.90
51739;DHT22;37815;52.692;6.226;2024-02-21T02:07:50;10.70;99.90
51739;DHT22;37815;52.692;6.226;2024-02-21T02:12:51;10.70;99.90
51739;DHT22;37815;52.692;6.226;2024-02-21T02:17:52;10.70;99.90
51739;DHT22;37815;52.692;6.226;2024-02-21T02:22:52;10.70;99.90
51739;DHT22;37815;52.692;6.226;2024-02-21T02:27:53;10.70;99.90
51739;DHT22;37815;52.692;6.226;2024-02-21T02:32:54;10.70;99.90
51739;DHT22;37815;52.692;6.226;2024-02-21T02:37:55;10.70;99.90
51739;DHT22;37815;52.692;6.226;2024-02-21T02:42:55;10.70;99.90
51739;DHT22;37815;52.692;6.226;2024-02-21T02:47:56;10.70;99.90
51739;DHT22;37815;52.692;6.226;2024-02-21T02:53:00;10.70;99.90
51739;DHT22;37815;52.692;6.226;2024-02-21T02:58:00;10.70;99.90
51739;DHT22;37815;52.692;6.226;2024-02-21T03:03:01;10.60;99.90
51739;DHT22;37815;52.692;6.226;2024-02-21T03:08:02;10.60;99.90
51739;DHT22;37815;52.692;6.226;2024-02-21T03:13:07;10.60;99.90
51739;DHT22;37815;52.692;6.226;2024-02-21T03:18:07;10.60;99.90
51739;DHT22;37815;52.692;6.226;2024-02-21T03:23:08;10.60;99.90
51739;DHT22;37815;52.692;6.226;2024-02-21T03:28:08;10.60;99.90
51739;DHT22;37815;52.692;6.226;2024-02-21T03:33:09;10.60;99.90
51739;DHT22;37815;52.692;6.226;2024-02-21T03:38:10;10.60;99.90
51739;DHT22;37815;52.692;6.226;2024-02-21T03:43:10;10.90;99.90
51739;DHT22;37815;52.692;6.226;2024-02-21T03:48:11;10.60;99.90
51739;DHT22;37815;52.692;6.226;2024-02-21T03:53:11;10.60;99.90
51739;DHT22;37815;52.692;6.226;2024-02-21T03:58:12;10.60;99.90
51739;DHT22;37815;52.692;6.226;2024-02-21T04:03:13;10.60;99.90
51739;DHT22;37815;52.692;6.226;2024-02-21T04:08:14;10.60;99.90
51739;DHT22;37815;52.692;6.226;2024-02-21T04:13:15;10.60;99.90
51739;DHT22;37815;52.692;6.226;2024-02-21T04:18:15;10.60;99.90
51739;DHT22;37815;52.692;6.226;2024-02-21T04:23:16;10.60;99.90
51739;DHT22;37815;52.692;6.226;2024-02-21T04:28:16;10.60;99.90
51739;DHT22;37815;52.692;6.226;2024-02-21T04:33:17;10.60;99.90
51739;DHT22;37815;52.692;6.226;2024-02-21T04:38:18;10.60;99.90
51739;DHT22;37815;52.692;6.226;2024-02-21T04:43:18;10.60;99.90
51739;DHT22;37815;52.692;6.226;2024-02-21T04:48:19;10.60;99.90
51739;DHT22;37815;52.692;6.226;2024-02-21T04:53:20;10.60;99.90
51739;DHT22;37815;52.692;6.226;2024-02-21T04:58:21;10.60;99.90
51739;DHT22;37815;52.692;6.226;2024-02-21T05:03:21;10.60;99.90
51739;DHT22;37815;52.692;6.226;2024-02-21T05:08:22;10.60;99.90
51739;DHT22;37815;52.692;6.226;2024-02-21T05:13:23;10.60;99.90
51739;DHT22;37815;52.692;6.226;2024-02-21T05:18:23;10.60;99.90
51739;DHT22;37815;52.692;6.226;2024-02-21T05:23:24;10.60;99.90
51739;DHT22;37815;52.692;6.226;2024-02-21T05:28:24;10.60;99.90
51739;DHT22;37815;52.692;6.226;2024-02-21T05:33:25;10.60;99.90
51739;DHT22;37815;52.692;6.226;2024-02-21T05:38:25;10.60;99.90
51739;DHT22;37815;52.692;6.226;2024-02-21T05:43:26;10.60;99.90
51739;DHT22;37815;52.692;6.226;2024-02-21T05:48:27;10.70;99.90
51739;DHT22;37815;52.692;6.226;2024-02-21T05:53:27;10.60;99.90
51739;DHT22;37815;52.692;6.226;2024-02-21T05:58:28;10.60;99.90
51739;DHT22;37815;52.692;6.226;2024-02-21T06:03:30;10.60;99.90
51739;DHT22;37815;52.692;6.226;2024-02-21T06:08:31;10.60;99.90
51739;DHT22;37815;52.692;6.226;2024-02-21T06:13:31;10.70;99.90
51739;DHT22;37815;52.692;6.226;2024-02-21T06:18:32;10.70;99.90
51739;DHT22;37815;52.692;6.226;2024-02-21T06:23:32;10.70;99.90
51739;DHT22;37815;52.692;6.226;2024-02-21T06:28:33;10.70;99.90
51739;DHT22;37815;52.692;6.226;2024-02-21T06:33:34;10.70;99.90
51739;DHT22;37815;52.692;6.226;2024-02-21T06:38:34;9.80;99.90
51739;DHT22;37815;52.692;6.226;2024-02-21T06:43:35;10.70;99.90
51739;DHT22;37815;52.692;6.226;2024-02-21T06:48:35;10.60;99.90
51739;DHT22;37815;52.692;6.226;2024-02-21T06:53:36;10.60;99.90
51739;DHT22;37815;52.692;6.226;2024-02-21T06:58:36;10.60;99.90
51739;DHT22;37815;52.692;6.226;2024-02-21T07:03:37;10.60;99.90
51739;DHT22;37815;52.692;6.226;2024-02-21T07:08:38;10.60;99.90
51739;DHT22;37815;52.692;6.226;2024-02-21T07:13:39;10.60;99.90
51739;DHT22;37815;52.692;6.226;2024-02-21T07:18:39;10.60;99.90
51739;DHT22;37815;52.692;6.226;2024-02-21T07:23:43;10.60;99.90
51739;DHT22;37815;52.692;6.226;2024-02-21T07:28:44;10.60;99.90
51739;DHT22;37815;52.692;6.226;2024-02-21T07:33:44;10.60;99.90
51739;DHT22;37815;52.692;6.226;2024-02-21T07:38:45;10.60;99.90
51739;DHT22;37815;52.692;6.226;2024-02-21T07:43:45;10.60;99.90
51739;DHT22;37815;52.692;6.226;2024-02-21T07:48:46;10.60;99.90
51739;DHT22;37815;52.692;6.226;2024-02-21T07:53:47;10.60;99.90
51739;DHT22;37815;52.692;6.226;2024-02-21T07:58:48;10.60;99.90
51739;DHT22;37815;52.692;6.226;2024-02-21T08:03:49;10.60;99.90
51739;DHT22;37815;52.692;6.226;2024-02-21T08:08:50;10.60;99.90
51739;DHT22;37815;52.692;6.226;2024-02-21T08:13:50;10.60;99.90
51739;DHT22;37815;52.692;6.226;2024-02-21T08:18:51;10.60;99.90
51739;DHT22;37815;52.692;6.226;2024-02-21T08:23:51;10.60;99.90
51739;DHT22;37815;52.692;6.226;2024-02-21T08:28:53;10.60;99.90
51739;DHT22;37815;52.692;6.226;2024-02-21T08:33:54;10.60;99.90
51739;DHT22;37815;52.692;6.226;2024-02-21T08:38:54;10.60;99.90
51739;DHT22;37815;52.692;6.226;2024-02-21T08:43:55;10.60;99.90
51739;DHT22;37815;52.692;6.226;2024-02-21T08:48:55;10.60;99.90
51739;DHT22;37815;52.692;6.226;2024-02-21T08:53:56;10.60;99.90
51739;DHT22;37815;52.692;6.226;2024-02-21T08:58:56;10.60;99.90
51739;DHT22;37815;52.692;6.226;2024-02-21T09:03:58;10.60;99.90
51739;DHT22;37815;52.692;6.226;2024-02-21T09:08:59;10.60;99.90
51739;DHT22;37815;52.692;6.226;2024-02-21T09:13:59;10.70;99.90
51739;DHT22;37815;52.692;6.226;2024-02-21T09:19:00;10.70;99.90
51739;DHT22;37815;52.692;6.226;2024-02-21T09:24:01;10.70;99.90
51739;DHT22;37815;52.692;6.226;2024-02-21T09:29:01;10.70;99.90
51739;DHT22;37815;52.692;6.226;2024-02-21T09:34:02;10.70;99.90
51739;DHT22;37815;52.692;6.226;2024-02-21T09:39:03;10.70;99.90
51739;DHT22;37815;52.692;6.226;2024-02-21T09:44:03;10.70;99.90
51739;DHT22;37815;52.692;6.226;2024-02-21T09:49:29;10.70;99.90
51739;DHT22;37815;52.692;6.226;2024-02-21T09:54:30;10.70;99.90
51739;DHT22;37815;52.692;6.226;2024-02-21T09:59:34;10.70;99.90
51739;DHT22;37815;52.692;6.226;2024-02-21T10:04:34;11.20;99.90
51739;DHT22;37815;52.692;6.226;2024-02-21T10:09:35;10.70;99.90
51739;DHT22;37815;52.692;6.226;2024-02-21T10:14:36;10.70;99.90
51739;DHT22;37815;52.692;6.226;2024-02-21T10:19:36;10.70;99.90
51739;DHT22;37815;52.692;6.226;2024-02-21T10:24:37;10.70;99.90
51739;DHT22;37815;52.692;6.226;2024-02-21T10:29:49;10.80;99.90
51739;DHT22;37815;52.692;6.226;2024-02-21T10:35:01;10.70;99.90
51739;DHT22;37815;52.692;6.226;2024-02-21T10:40:02;10.70;99.90
51739;DHT22;37815;52.692;6.226;2024-02-21T10:45:07;10.70;99.90
51739;DHT22;37815;52.692;6.226;2024-02-21T10:50:10;10.70;99.90
51739;DHT22;37815;52.692;6.226;2024-02-21T10:55:20;10.70;99.90
51739;DHT22;37815;52.692;6.226;2024-02-21T11:00:26;10.80;99.90
51739;DHT22;37815;52.692;6.226;2024-02-21T11:05:31;10.80;99.90
51739;DHT22;37815;52.692;6.226;2024-02-21T11:10:32;10.90;99.90
51739;DHT22;37815;52.692;6.226;2024-02-21T11:15:36;10.80;99.90
51739;DHT22;37815;52.692;6.226;2024-02-21T11:20:37;10.70;99.90
51739;DHT22;37815;52.692;6.226;2024-02-21T11:25:38;10.80;99.90
51739;DHT22;37815;52.692;6.226;2024-02-21T11:30:39;10.80;99.90
51739;DHT22;37815;52.692;6.226;2024-02-21T11:35:40;10.80;99.90
51739;DHT22;37815;52.692;6.226;2024-02-21T11:40:44;10.80;99.90
51739;DHT22;37815;52.692;6.226;2024-02-21T11:45:45;10.80;99.90
51739;DHT22;37815;52.692;6.226;2024-02-21T11:50:53;10.80;99.90
51739;DHT22;37815;52.692;6.226;2024-02-21T11:55:55;10.80;99.90
51739;DHT22;37815;52.692;6.226;2024-02-21T12:00:57;10.80;99.90
51739;DHT22;37815;52.692;6.226;2024-02-21T12:05:58;10.80;99.90
51739;DHT22;37815;52.692;6.226;2024-02-21T12:11:00;10.80;99.90
51739;DHT22;37815;52.692;6.226;2024-02-21T12:16:00;10.80;99.90
51739;DHT22;37815;52.692;6.226;2024-02-21T12:21:01;10.80;99.90
51739;DHT22;37815;52.692;6.226;2024-02-21T12:26:02;10.80;99.90
51739;DHT22;37815;52.692;6.226;2024-02-21T12:31:05;10.80;99.90
51739;DHT22;37815;52.692;6.226;2024-02-21T12:36:06;10.80;99.90
51739;DHT22;37815;52.692;6.226;2024-02-21T12:41:09;10.80;99.90
51739;DHT22;37815;52.692;6.226;2024-02-21T12:46:09;10.80;99.90
51739;DHT22;37815;52.692;6.226;2024-02-21T12:51:10;10.80;99.90
51739;DHT22;37815;52.692;6.226;2024-02-21T12:56:10;10.80;99.90
51739;DHT22;37815;52.692;6.226;2024-02-21T13:01:11;10.80;99.90
51739;DHT22;37815;52.692;6.226;2024-02-21T13:06:12;10.80;99.90
51739;DHT22;37815;52.692;6.226;2024-02-21T13:11:13;10.80;99.90
51739;DHT22;37815;52.692;6.226;2024-02-21T13:16:14;10.80;99.90
51739;DHT22;37815;52.692;6.226;2024-02-21T13:21:14;10.80;99.90
51739;DHT22;37815;52.692;6.226;2024-02-21T13:26:15;10.80;99.90
51739;DHT22;37815;52.692;6.226;2024-02-21T13:31:15;11.40;99.90
51739;DHT22;37815;52.692;6.226;2024-02-21T13:36:19;10.80;99.90
51739;DHT22;37815;52.692;6.226;2024-02-21T13:41:19;10.80;99.90
51739;DHT22;37815;52.692;6.226;2024-02-21T13:46:22;10.80;99.90
51739;DHT22;37815;52.692;6.226;2024-02-21T13:51:23;10.90;99.90
51739;DHT22;37815;52.692;6.226;2024-02-21T13:56:23;10.90;99.90
51739;DHT22;37815;52.692;6.226;2024-02-21T14:01:24;10.80;99.90
51739;DHT22;37815;52.692;6.226;2024-02-21T14:06:24;10.80;99.90
51739;DHT22;37815;52.692;6.226;2024-02-21T14:11:25;10.80;99.90
51739;DHT22;37815;52.692;6.226;2024-02-21T14:16:27;10.80;99.90
51739;DHT22;37815;52.692;6.226;2024-02-21T14:21:28;10.80;99.90
51739;DHT22;37815;52.692;6.226;2024-02-21T14:26:29;10.80;99.90
51739;DHT22;37815;52.692;6.226;2024-02-21T14:31:31;10.90;99.90
51739;DHT22;37815;52.692;6.226;2024-02-21T14:36:33;10.90;99.90
51739;DHT22;37815;52.692;6.226;2024-02-21T14:41:33;10.90;99.90
51739;DHT22;37815;52.692;6.226;2024-02-21T14:46:36;10.90;99.90
51739;DHT22;37815;52.692;6.226;2024-02-21T14:51:38;10.80;99.90
51739;DHT22;37815;52.692;6.226;2024-02-21T14:56:39;10.80;99.90
51739;DHT22;37815;52.692;6.226;2024-02-21T15:01:39;10.80;99.90
51739;DHT22;37815;52.692;6.226;2024-02-21T15:06:40;10.80;99.90
51739;DHT22;37815;52.692;6.226;2024-02-21T15:11:41;10.80;99.90
51739;DHT22;37815;52.692;6.226;2024-02-21T15:16:43;10.90;99.90
51739;DHT22;37815;52.692;6.226;2024-02-21T15:21:44;10.80;99.90
51739;DHT22;37815;52.692;6.226;2024-02-21T15:26:45;10.80;99.90
51739;DHT22;37815;52.692;6.226;2024-02-21T15:31:45;10.80;99.90
51739;DHT22;37815;52.692;6.226;2024-02-21T15:36:46;10.70;99.90
51739;DHT22;37815;52.692;6.226;2024-02-21T15:41:47;10.80;99.90
51739;DHT22;37815;52.692;6.226;2024-02-21T15:46:48;10.70;99.90
51739;DHT22;37815;52.692;6.226;2024-02-21T15:51:49;10.70;99.90
51739;DHT22;37815;52.692;6.226;2024-02-21T15:56:49;10.70;99.90
51739;DHT22;37815;52.692;6.226;2024-02-21T16:01:50;10.70;99.90
51739;DHT22;37815;52.692;6.226;2024-02-21T16:06:51;10.70;99.90
51739;DHT22;37815;52.692;6.226;2024-02-21T16:11:51;10.70;99.90
51739;DHT22;37815;52.692;6.226;2024-02-21T16:16:52;10.70;99.90
51739;DHT22;37815;52.692;6.226;2024-02-21T16:21:52;10.70;99.90
51739;DHT22;37815;52.692;6.226;2024-02-21T16:26:54;10.70;99.90
51739;DHT22;37815;52.692;6.226;2024-02-21T16:31:54;10.70;99.90
51739;DHT22;37815;52.692;6.226;2024-02-21T16:36:55;10.70;99.90
51739;DHT22;37815;52.692;6.226;2024-02-21T16:41:57;10.70;99.90
51739;DHT22;37815;52.692;6.226;2024-02-21T16:47:04;10.70;99.90
51739;DHT22;37815;52.692;6.226;2024-02-21T16:52:05;10.70;99.90
51739;DHT22;37815;52.692;6.226;2024-02-21T16:57:06;10.70;99.90
51739;DHT22;37815;52.692;6.226;2024-02-21T17:02:07;10.70;99.90
51739;DHT22;37815;52.692;6.226;2024-02-21T17:07:07;10.70;99.90
51739;DHT22;37815;52.692;6.226;2024-02-21T17:12:08;10.60;99.90
51739;DHT22;37815;52.692;6.226;2024-02-21T17:17:09;10.60;99.90
51739;DHT22;37815;52.692;6.226;2024-02-21T17:22:09;10.60;99.90
51739;DHT22;37815;52.692;6.226;2024-02-21T17:27:10;10.60;99.90
51739;DHT22;37815;52.692;6.226;2024-02-21T17:32:11;10.60;99.90
51739;DHT22;37815;52.692;6.226;2024-02-21T17:37:11;10.60;99.90
51739;DHT22;37815;52.692;6.226;2024-02-21T17:42:12;10.70;99.90
51739;DHT22;37815;52.692;6.226;2024-02-21T17:47:13;10.70;99.90
51739;DHT22;37815;52.692;6.226;2024-02-21T17:52:14;10.60;99.90
51739;DHT22;37815;52.692;6.226;2024-02-21T17:57:15;10.60;99.90
51739;DHT22;37815;52.692;6.226;2024-02-21T18:02:16;10.60;99.90
51739;DHT22;37815;52.692;6.226;2024-02-21T18:07:20;10.60;99.90
51739;DHT22;37815;52.692;6.226;2024-02-21T18:12:20;10.60;99.90
51739;DHT22;37815;52.692;6.226;2024-02-21T18:17:21;10.60;99.90
51739;DHT22;37815;52.692;6.226;2024-02-21T18:22:23;10.60;99.90
51739;DHT22;37815;52.692;6.226;2024-02-21T18:27:23;10.60;99.90
51739;DHT22;37815;52.692;6.226;2024-02-21T18:32:24;10.50;99.90
51739;DHT22;37815;52.692;6.226;2024-02-21T18:37:25;10.50;99.90
51739;DHT22;37815;52.692;6.226;2024-02-21T18:42:26;10.50;99.90
51739;DHT22;37815;52.692;6.226;2024-02-21T18:47:26;10.50;99.90
51739;DHT22;37815;52.692;6.226;2024-02-21T18:52:27;10.60;99.90
51739;DHT22;37815;52.692;6.226;2024-02-21T18:57:28;10.60;99.90
51739;DHT22;37815;52.692;6.226;2024-02-21T19:02:29;10.70;99.90
51739;DHT22;37815;52.692;6.226;2024-02-21T19:07:29;10.70;99.90
51739;DHT22;37815;52.692;6.226;2024-02-21T19:12:34;10.60;99.90
51739;DHT22;37815;52.692;6.226;2024-02-21T19:17:36;10.60;99.90
51739;DHT22;37815;52.692;6.226;2024-02-21T19:22:38;10.60;99.90
51739;DHT22;37815;52.692;6.226;2024-02-21T19:27:40;10.60;99.90
51739;DHT22;37815;52.692;6.226;2024-02-21T19:32:41;10.50;99.90
51739;DHT22;37815;52.692;6.226;2024-02-21T19:37:41;10.50;99.90
51739;DHT22;37815;52.692;6.226;2024-02-21T19:42:43;10.50;99.90
51739;DHT22;37815;52.692;6.226;2024-02-21T19:47:43;10.50;99.90
51739;DHT22;37815;52.692;6.226;2024-02-21T19:52:44;10.50;99.90
51739;DHT22;37815;52.692;6.226;2024-02-21T19:57:45;10.50;99.90
51739;DHT22;37815;52.692;6.226;2024-02-21T20:02:46;10.50;99.90
51739;DHT22;37815;52.692;6.226;2024-02-21T20:07:49;11.40;99.90
51739;DHT22;37815;52.692;6.226;2024-02-21T20:12:49;10.50;99.90
51739;DHT22;37815;52.692;6.226;2024-02-21T20:17:50;10.50;99.90
51739;DHT22;37815;52.692;6.226;2024-02-21T20:22:51;10.50;99.90
51739;DHT22;37815;52.692;6.226;2024-02-21T20:27:51;10.40;99.90
51739;DHT22;37815;52.692;6.226;2024-02-21T20:32:52;10.40;99.90
51739;DHT22;37815;52.692;6.226;2024-02-21T20:37:53;10.40;99.90
51739;DHT22;37815;52.692;6.226;2024-02-21T20:42:53;10.40;99.90
51739;DHT22;37815;52.692;6.226;2024-02-21T20:47:54;10.40;99.90
51739;DHT22;37815;52.692;6.226;2024-02-21T20:52:54;10.40;99.90
51739;DHT22;37815;52.692;6.226;2024-02-21T20:57:55;10.40;99.90
51739;DHT22;37815;52.692;6.226;2024-02-21T21:02:56;10.40;99.90
51739;DHT22;37815;52.692;6.226;2024-02-21T21:07:56;10.40;99.90
51739;DHT22;37815;52.692;6.226;2024-02-21T21:12:57;10.40;99.90
51739;DHT22;37815;52.692;6.226;2024-02-21T21:17:59;10.40;99.90
51739;DHT22;37815;52.692;6.226;2024-02-21T21:23:00;10.40;99.90
51739;DHT22;37815;52.692;6.226;2024-02-21T21:28:00;10.40;99.90
51739;DHT22;37815;52.692;6.226;2024-02-21T21:33:01;10.40;99.90
51739;DHT22;37815;52.692;6.226;2024-02-21T21:38:04;10.40;99.90
51739;DHT22;37815;52.692;6.226;2024-02-21T21:43:05;10.40;99.90
51739;DHT22;37815;52.692;6.226;2024-02-21T21:48:06;10.40;99.90
51739;DHT22;37815;52.692;6.226;2024-02-21T21:53:06;10.40;99.90
51739;DHT22;37815;52.692;6.226;2024-02-21T21:58:07;10.40;99.90
51739;DHT22;37815;52.692;6.226;2024-02-21T22:03:09;10.40;99.90
51739;DHT22;37815;52.692;6.226;2024-02-21T22:08:12;10.40;99.90
51739;DHT22;37815;52.692;6.226;2024-02-21T22:13:13;10.40;99.90
51739;DHT22;37815;52.692;6.226;2024-02-21T22:18:14;10.40;99.90
51739;DHT22;37815;52.692;6.226;2024-02-21T22:23:15;10.50;99.90
51739;DHT22;37815;52.692;6.226;2024-02-21T22:28:16;10.40;99.90
51739;DHT22;37815;52.692;6.226;2024-02-21T22:33:18;10.40;99.90
51739;DHT22;37815;52.692;6.226;2024-02-21T22:38:19;10.40;99.90
51739;DHT22;37815;52.692;6.226;2024-02-21T22:43:19;10.40;99.90
51739;DHT22;37815;52.692;6.226;2024-02-21T22:48:20;10.40;99.90
51739;DHT22;37815;52.692;6.226;2024-02-21T22:53:22;10.40;99.90
51739;DHT22;37815;52.692;6.226;2024-02-21T22:58:22;10.40;99.90
51739;DHT22;37815;52.692;6.226;2024-02-21T23:03:23;10.40;99.90
51739;DHT22;37815;52.692;6.226;2024-02-21T23:08:23;10.40;99.90
51739;DHT22;37815;52.692;6.226;2024-02-21T23:13:24;10.40;99.90
51739;DHT22;37815;52.692;6.226;2024-02-21T23:18:25;10.40;99.90
51739;DHT22;37815;52.692;6.226;2024-02-21T23:23:25;10.40;99.90
51739;DHT22;37815;52.692;6.226;2024-02-21T23:28:26;10.40;99.90
51739;DHT22;37815;52.692;6.226;2024-02-21T23:33:29;10.40;99.90
51739;DHT22;37815;52.692;6.226;2024-02-21T23:38:34;10.40;99.90
51739;DHT22;37815;52.692;6.226;2024-02-21T23:43:42;10.40;99.90
51739;DHT22;37815;52.692;6.226;2024-02-21T23:48:42;10.40;99.90
51739;DHT22;37815;52.692;6.226;2024-02-21T23:53:43;10.40;99.90
51739;DHT22;37815;52.692;6.226;2024-02-21T23:58:44;10.50;99.90
